sensor_id;sensor_type;location;lat;lon;timestamp;temperature;humidity
2012;DHT22;1009;51.436;6.972;2023-11-19T00:00:06;11.00;99.90
2012;DHT22;1009;51.436;6.972;2023-11-19T00:02:36;11.10;99.90
2012;DHT22;1009;51.436;6.972;2023-11-19T00:05:05;11.10;99.90
2012;DHT22;1009;51.436;6.972;2023-11-19T00:07:34;11.10;99.90
2012;DHT22;1009;51.436;6.972;2023-11-19T00:10:01;11.10;99.90
2012;DHT22;1009;51.436;6.972;2023-11-19T00:12:36;11.20;99.90
2012;DHT22;1009;51.436;6.972;2023-11-19T00:15:04;11.20;99.90
2012;DHT22;1009;51.436;6.972;2023-11-19T00:17:31;11.20;99.90
2012;DHT22;1009;51.436;6.972;2023-11-19T00:19:58;11.30;99.90
2012;DHT22;1009;51.436;6.972;2023-11-19T00:22:26;11.30;99.90
2012;DHT22;1009;51.436;6.972;2023-11-19T00:24:53;11.30;99.90
2012;DHT22;1009;51.436;6.972;2023-11-19T00:27:20;11.30;99.90
2012;DHT22;1009;51.436;6.972;2023-11-19T00:29:46;11.30;99.90
2012;DHT22;1009;51.436;6.972;2023-11-19T00:32:13;11.40;99.90
2012;DHT22;1009;51.436;6.972;2023-11-19T00:34:43;11.40;99.90
2012;DHT22;1009;51.436;6.972;2023-11-19T00:37:10;11.40;99.90
2012;DHT22;1009;51.436;6.972;2023-11-19T00:39:38;11.40;99.90
2012;DHT22;1009;51.436;6.972;2023-11-19T00:42:05;11.50;99.90
2012;DHT22;1009;51.436;6.972;2023-11-19T00:44:31;11.50;99.90
2012;DHT22;1009;51.436;6.972;2023-11-19T00:46:58;11.50;99.90
2012;DHT22;1009;51.436;6.972;2023-11-19T00:49:26;11.50;99.90
2012;DHT22;1009;51.436;6.972;2023-11-19T00:51:53;11.50;99.90
2012;DHT22;1009;51.436;6.972;2023-11-19T00:54:19;11.60;99.90
2012;DHT22;1009;51.436;6.972;2023-11-19T00:56:48;11.60;99.90
2012;DHT22;1009;51.436;6.972;2023-11-19T00:59:17;11.70;99.90
2012;DHT22;1009;51.436;6.972;2023-11-19T01:01:44;11.70;99.90
2012;DHT22;1009;51.436;6.972;2023-11-19T01:04:11;11.70;99.90
2012;DHT22;1009;51.436;6.972;2023-11-19T01:06:37;11.80;99.90
2012;DHT22;1009;51.436;6.972;2023-11-19T01:09:04;11.80;99.90
2012;DHT22;1009;51.436;6.972;2023-11-19T01:11:31;11.90;99.90
2012;DHT22;1009;51.436;6.972;2023-11-19T01:13:59;11.90;99.90
2012;DHT22;1009;51.436;6.972;2023-11-19T01:16:26;11.90;99.90
2012;DHT22;1009;51.436;6.972;2023-11-19T01:18:53;11.90;99.90
2012;DHT22;1009;51.436;6.972;2023-11-19T01:21:20;11.90;99.90
2012;DHT22;1009;51.436;6.972;2023-11-19T01:23:47;12.00;99.90
2012;DHT22;1009;51.436;6.972;2023-11-19T01:26:14;12.00;99.90
2012;DHT22;1009;51.436;6.972;2023-11-19T01:28:41;12.10;99.90
2012;DHT22;1009;51.436;6.972;2023-11-19T01:31:11;12.10;99.90
2012;DHT22;1009;51.436;6.972;2023-11-19T01:33:38;12.10;99.90
2012;DHT22;1009;51.436;6.972;2023-11-19T01:36:06;12.10;99.90
2012;DHT22;1009;51.436;6.972;2023-11-19T01:38:33;12.20;99.90
2012;DHT22;1009;51.436;6.972;2023-11-19T01:41:01;12.10;99.90
2012;DHT22;1009;51.436;6.972;2023-11-19T01:43:33;12.10;99.90
2012;DHT22;1009;51.436;6.972;2023-11-19T01:45:59;12.10;99.90
2012;DHT22;1009;51.436;6.972;2023-11-19T01:48:28;12.20;99.90
2012;DHT22;1009;51.436;6.972;2023-11-19T01:50:55;12.20;99.90
2012;DHT22;1009;51.436;6.972;2023-11-19T01:53:22;12.20;99.90
2012;DHT22;1009;51.436;6.972;2023-11-19T01:55:50;12.30;99.90
2012;DHT22;1009;51.436;6.972;2023-11-19T01:58:18;12.30;99.90
2012;DHT22;1009;51.436;6.972;2023-11-19T02:00:45;12.30;99.90
2012;DHT22;1009;51.436;6.972;2023-11-19T02:03:12;12.30;99.90
2012;DHT22;1009;51.436;6.972;2023-11-19T02:05:41;12.40;99.90
2012;DHT22;1009;51.436;6.972;2023-11-19T02:08:08;12.30;99.90
2012;DHT22;1009;51.436;6.972;2023-11-19T02:10:35;12.40;99.90
2012;DHT22;1009;51.436;6.972;2023-11-19T02:13:02;12.40;99.90
2012;DHT22;1009;51.436;6.972;2023-11-19T02:15:30;12.40;99.90
2012;DHT22;1009;51.436;6.972;2023-11-19T02:17:57;12.40;99.90
2012;DHT22;1009;51.436;6.972;2023-11-19T02:20:44;12.40;99.90
2012;DHT22;1009;51.436;6.972;2023-11-19T02:23:12;12.40;99.90
2012;DHT22;1009;51.436;6.972;2023-11-19T02:25:40;12.40;99.90
2012;DHT22;1009;51.436;6.972;2023-11-19T02:28:08;12.40;99.90
2012;DHT22;1009;51.436;6.972;2023-11-19T02:33:59;12.40;99.90
2012;DHT22;1009;51.436;6.972;2023-11-19T02:36:28;12.40;99.90
2012;DHT22;1009;51.436;6.972;2023-11-19T02:38:55;12.40;99.90
2012;DHT22;1009;51.436;6.972;2023-11-19T02:41:25;12.40;99.90
2012;DHT22;1009;51.436;6.972;2023-11-19T02:43:53;12.50;99.90
2012;DHT22;1009;51.436;6.972;2023-11-19T02:46:24;12.40;99.90
2012;DHT22;1009;51.436;6.972;2023-11-19T02:49:01;12.40;99.90
2012;DHT22;1009;51.436;6.972;2023-11-19T02:51:31;12.40;99.90
2012;DHT22;1009;51.436;6.972;2023-11-19T02:53:59;12.50;99.90
2012;DHT22;1009;51.436;6.972;2023-11-19T02:56:26;12.50;99.90
2012;DHT22;1009;51.436;6.972;2023-11-19T02:58:57;12.50;99.90
2012;DHT22;1009;51.436;6.972;2023-11-19T03:01:25;12.50;99.90
2012;DHT22;1009;51.436;6.972;2023-11-19T03:04:03;12.50;99.90
2012;DHT22;1009;51.436;6.972;2023-11-19T03:06:37;12.60;99.90
2012;DHT22;1009;51.436;6.972;2023-11-19T03:09:06;12.50;99.90
2012;DHT22;1009;51.436;6.972;2023-11-19T03:11:54;12.60;99.90
2012;DHT22;1009;51.436;6.972;2023-11-19T03:14:23;12.50;99.90
2012;DHT22;1009;51.436;6.972;2023-11-19T03:16:50;12.60;99.90
2012;DHT22;1009;51.436;6.972;2023-11-19T03:19:17;12.60;99.90
2012;DHT22;1009;51.436;6.972;2023-11-19T03:21:45;12.60;99.90
2012;DHT22;1009;51.436;6.972;2023-11-19T03:24:15;12.60;99.90
2012;DHT22;1009;51.436;6.972;2023-11-19T03:26:43;12.60;99.90
2012;DHT22;1009;51.436;6.972;2023-11-19T03:29:15;12.60;99.90
2012;DHT22;1009;51.436;6.972;2023-11-19T03:31:46;12.50;99.90
2012;DHT22;1009;51.436;6.972;2023-11-19T03:34:18;12.50;99.90
2012;DHT22;1009;51.436;6.972;2023-11-19T03:36:46;12.50;99.90
2012;DHT22;1009;51.436;6.972;2023-11-19T03:39:14;12.50;99.90
2012;DHT22;1009;51.436;6.972;2023-11-19T03:41:41;12.50;99.90
2012;DHT22;1009;51.436;6.972;2023-11-19T03:44:15;12.50;99.90
2012;DHT22;1009;51.436;6.972;2023-11-19T03:46:47;12.50;99.90
2012;DHT22;1009;51.436;6.972;2023-11-19T03:49:17;12.50;99.90
2012;DHT22;1009;51.436;6.972;2023-11-19T03:51:47;12.50;99.90
2012;DHT22;1009;51.436;6.972;2023-11-19T03:54:15;12.40;99.90
2012;DHT22;1009;51.436;6.972;2023-11-19T03:56:42;12.40;99.90
2012;DHT22;1009;51.436;6.972;2023-11-19T03:59:10;12.40;99.90
2012;DHT22;1009;51.436;6.972;2023-11-19T04:01:40;12.50;99.90
2012;DHT22;1009;51.436;6.972;2023-11-19T04:04:10;12.40;99.90
2012;DHT22;1009;51.436;6.972;2023-11-19T04:06:38;12.30;99.90
2012;DHT22;1009;51.436;6.972;2023-11-19T04:09:04;12.30;99.90
2012;DHT22;1009;51.436;6.972;2023-11-19T04:11:38;12.30;99.90
2012;DHT22;1009;51.436;6.972;2023-11-19T04:14:06;12.30;99.90
2012;DHT22;1009;51.436;6.972;2023-11-19T04:16:34;12.30;99.90
2012;DHT22;1009;51.436;6.972;2023-11-19T04:19:06;12.20;99.90
2012;DHT22;1009;51.436;6.972;2023-11-19T04:21:40;12.10;99.90
2012;DHT22;1009;51.436;6.972;2023-11-19T04:24:09;12.10;99.90
2012;DHT22;1009;51.436;6.972;2023-11-19T04:26:41;12.10;99.90
2012;DHT22;1009;51.436;6.972;2023-11-19T04:29:09;12.10;99.90
2012;DHT22;1009;51.436;6.972;2023-11-19T04:31:37;12.00;99.90
2012;DHT22;1009;51.436;6.972;2023-11-19T04:34:05;12.00;99.90
2012;DHT22;1009;51.436;6.972;2023-11-19T04:36:32;12.00;99.90
2012;DHT22;1009;51.436;6.972;2023-11-19T04:39:02;12.00;99.90
2012;DHT22;1009;51.436;6.972;2023-11-19T04:41:31;12.10;99.90
2012;DHT22;1009;51.436;6.972;2023-11-19T04:43:59;12.00;99.90
2012;DHT22;1009;51.436;6.972;2023-11-19T04:46:27;12.10;99.90
2012;DHT22;1009;51.436;6.972;2023-11-19T04:48:55;12.10;99.90
2012;DHT22;1009;51.436;6.972;2023-11-19T04:51:23;12.10;99.90
2012;DHT22;1009;51.436;6.972;2023-11-19T04:53:50;12.20;99.90
2012;DHT22;1009;51.436;6.972;2023-11-19T04:56:24;12.20;99.90
2012;DHT22;1009;51.436;6.972;2023-11-19T04:58:51;12.20;99.90
2012;DHT22;1009;51.436;6.972;2023-11-19T05:01:18;12.10;99.90
2012;DHT22;1009;51.436;6.972;2023-11-19T05:03:51;12.10;99.90
2012;DHT22;1009;51.436;6.972;2023-11-19T05:06:18;12.10;99.90
2012;DHT22;1009;51.436;6.972;2023-11-19T05:08:46;12.10;99.90
2012;DHT22;1009;51.436;6.972;2023-11-19T05:11:14;12.20;99.90
2012;DHT22;1009;51.436;6.972;2023-11-19T05:13:47;12.20;99.90
2012;DHT22;1009;51.436;6.972;2023-11-19T05:16:14;12.20;99.90
2012;DHT22;1009;51.436;6.972;2023-11-19T05:18:41;12.20;99.90
2012;DHT22;1009;51.436;6.972;2023-11-19T05:21:13;12.20;99.90
2012;DHT22;1009;51.436;6.972;2023-11-19T05:23:43;12.30;99.90
2012;DHT22;1009;51.436;6.972;2023-11-19T05:26:21;12.30;99.90
2012;DHT22;1009;51.436;6.972;2023-11-19T05:28:53;12.40;99.90
2012;DHT22;1009;51.436;6.972;2023-11-19T05:31:24;12.40;99.90
2012;DHT22;1009;51.436;6.972;2023-11-19T05:33:51;12.40;99.90
2012;DHT22;1009;51.436;6.972;2023-11-19T05:36:18;12.30;99.90
2012;DHT22;1009;51.436;6.972;2023-11-19T05:38:46;12.30;99.90
2012;DHT22;1009;51.436;6.972;2023-11-19T05:41:16;12.30;99.90
2012;DHT22;1009;51.436;6.972;2023-11-19T05:43:46;12.30;99.90
2012;DHT22;1009;51.436;6.972;2023-11-19T05:46:15;12.20;99.90
2012;DHT22;1009;51.436;6.972;2023-11-19T05:48:42;12.20;99.90
2012;DHT22;1009;51.436;6.972;2023-11-19T05:51:12;12.20;99.90
2012;DHT22;1009;51.436;6.972;2023-11-19T05:53:41;12.20;99.90
2012;DHT22;1009;51.436;6.972;2023-11-19T05:56:08;12.20;99.90
2012;DHT22;1009;51.436;6.972;2023-11-19T05:58:38;12.20;99.90
2012;DHT22;1009;51.436;6.972;2023-11-19T06:01:06;12.10;99.90
2012;DHT22;1009;51.436;6.972;2023-11-19T06:03:35;12.20;99.90
2012;DHT22;1009;51.436;6.972;2023-11-19T06:06:03;12.10;99.90
2012;DHT22;1009;51.436;6.972;2023-11-19T06:08:30;12.10;99.90
2012;DHT22;1009;51.436;6.972;2023-11-19T06:10:57;12.10;99.90
2012;DHT22;1009;51.436;6.972;2023-11-19T06:13:27;12.10;99.90
2012;DHT22;1009;51.436;6.972;2023-11-19T06:15:57;12.10;99.90
2012;DHT22;1009;51.436;6.972;2023-11-19T06:18:28;12.10;99.90
2012;DHT22;1009;51.436;6.972;2023-11-19T06:21:01;12.10;99.90
2012;DHT22;1009;51.436;6.972;2023-11-19T06:23:29;12.00;99.90
2012;DHT22;1009;51.436;6.972;2023-11-19T06:25:57;12.00;99.90
2012;DHT22;1009;51.436;6.972;2023-11-19T06:28:25;12.00;99.90
2012;DHT22;1009;51.436;6.972;2023-11-19T06:30:53;12.00;99.90
2012;DHT22;1009;51.436;6.972;2023-11-19T06:33:26;12.00;99.90
2012;DHT22;1009;51.436;6.972;2023-11-19T06:36:22;12.00;99.90
2012;DHT22;1009;51.436;6.972;2023-11-19T06:38:50;12.00;99.90
2012;DHT22;1009;51.436;6.972;2023-11-19T06:41:21;12.00;99.90
2012;DHT22;1009;51.436;6.972;2023-11-19T06:43:50;12.00;99.90
2012;DHT22;1009;51.436;6.972;2023-11-19T06:46:19;11.90;99.90
2012;DHT22;1009;51.436;6.972;2023-11-19T06:48:47;11.90;99.90
2012;DHT22;1009;51.436;6.972;2023-11-19T06:51:14;11.90;99.90
2012;DHT22;1009;51.436;6.972;2023-11-19T06:53:44;11.90;99.90
2012;DHT22;1009;51.436;6.972;2023-11-19T06:56:24;11.90;99.90
2012;DHT22;1009;51.436;6.972;2023-11-19T06:58:52;11.80;99.90
2012;DHT22;1009;51.436;6.972;2023-11-19T07:01:21;11.90;99.90
2012;DHT22;1009;51.436;6.972;2023-11-19T07:03:57;11.90;99.90
2012;DHT22;1009;51.436;6.972;2023-11-19T07:06:27;11.90;99.90
2012;DHT22;1009;51.436;6.972;2023-11-19T07:08:56;12.00;99.90
2012;DHT22;1009;51.436;6.972;2023-11-19T07:11:26;11.90;99.90
2012;DHT22;1009;51.436;6.972;2023-11-19T07:13:54;11.90;99.90
2012;DHT22;1009;51.436;6.972;2023-11-19T07:16:22;11.80;99.90
2012;DHT22;1009;51.436;6.972;2023-11-19T07:18:49;11.80;99.90
2012;DHT22;1009;51.436;6.972;2023-11-19T07:21:17;11.70;99.90
2012;DHT22;1009;51.436;6.972;2023-11-19T07:23:45;11.70;99.90
2012;DHT22;1009;51.436;6.972;2023-11-19T07:26:16;11.70;99.90
2012;DHT22;1009;51.436;6.972;2023-11-19T07:28:46;11.70;99.90
2012;DHT22;1009;51.436;6.972;2023-11-19T07:31:14;11.60;99.90
2012;DHT22;1009;51.436;6.972;2023-11-19T07:33:42;11.60;99.90
2012;DHT22;1009;51.436;6.972;2023-11-19T07:36:10;11.60;99.90
2012;DHT22;1009;51.436;6.972;2023-11-19T07:38:42;11.60;99.90
2012;DHT22;1009;51.436;6.972;2023-11-19T07:41:10;11.60;99.90
2012;DHT22;1009;51.436;6.972;2023-11-19T07:43:43;11.70;99.90
2012;DHT22;1009;51.436;6.972;2023-11-19T07:46:15;11.70;99.90
2012;DHT22;1009;51.436;6.972;2023-11-19T07:48:45;11.70;99.90
2012;DHT22;1009;51.436;6.972;2023-11-19T07:51:15;11.60;99.90
2012;DHT22;1009;51.436;6.972;2023-11-19T07:53:45;11.60;99.90
2012;DHT22;1009;51.436;6.972;2023-11-19T07:56:16;11.50;99.90
2012;DHT22;1009;51.436;6.972;2023-11-19T07:58:45;11.50;99.90
2012;DHT22;1009;51.436;6.972;2023-11-19T08:01:15;11.50;99.90
2012;DHT22;1009;51.436;6.972;2023-11-19T08:03:42;11.50;99.90
2012;DHT22;1009;51.436;6.972;2023-11-19T08:06:10;11.50;99.90
2012;DHT22;1009;51.436;6.972;2023-11-19T08:08:37;11.60;99.90
2012;DHT22;1009;51.436;6.972;2023-11-19T08:11:11;11.60;99.90
2012;DHT22;1009;51.436;6.972;2023-11-19T08:13:39;11.50;99.90
2012;DHT22;1009;51.436;6.972;2023-11-19T08:16:08;11.60;99.90
2012;DHT22;1009;51.436;6.972;2023-11-19T08:18:35;11.70;99.90
2012;DHT22;1009;51.436;6.972;2023-11-19T08:21:02;11.70;99.90
2012;DHT22;1009;51.436;6.972;2023-11-19T08:23:30;11.70;99.90
2012;DHT22;1009;51.436;6.972;2023-11-19T08:25:57;11.80;99.90
2012;DHT22;1009;51.436;6.972;2023-11-19T08:28:23;11.80;99.90
2012;DHT22;1009;51.436;6.972;2023-11-19T08:30:50;11.80;99.90
2012;DHT22;1009;51.436;6.972;2023-11-19T08:33:18;11.80;99.90
2012;DHT22;1009;51.436;6.972;2023-11-19T08:35:47;11.80;99.90
2012;DHT22;1009;51.436;6.972;2023-11-19T08:38:14;11.90;99.90
2012;DHT22;1009;51.436;6.972;2023-11-19T08:40:41;11.80;99.90
2012;DHT22;1009;51.436;6.972;2023-11-19T08:43:08;11.80;99.90
2012;DHT22;1009;51.436;6.972;2023-11-19T08:45:35;11.80;99.90
2012;DHT22;1009;51.436;6.972;2023-11-19T08:48:01;12.00;99.90
2012;DHT22;1009;51.436;6.972;2023-11-19T08:50:30;12.00;99.90
2012;DHT22;1009;51.436;6.972;2023-11-19T08:52:56;12.00;99.90
2012;DHT22;1009;51.436;6.972;2023-11-19T08:55:23;12.00;99.90
2012;DHT22;1009;51.436;6.972;2023-11-19T08:57:51;12.00;99.90
2012;DHT22;1009;51.436;6.972;2023-11-19T09:00:18;12.10;99.90
2012;DHT22;1009;51.436;6.972;2023-11-19T09:02:46;12.10;99.90
2012;DHT22;1009;51.436;6.972;2023-11-19T09:05:13;12.10;99.90
2012;DHT22;1009;51.436;6.972;2023-11-19T09:07:41;12.10;99.90
2012;DHT22;1009;51.436;6.972;2023-11-19T09:10:08;12.10;99.90
2012;DHT22;1009;51.436;6.972;2023-11-19T09:12:37;12.20;99.90
2012;DHT22;1009;51.436;6.972;2023-11-19T09:15:04;12.20;99.90
2012;DHT22;1009;51.436;6.972;2023-11-19T09:17:31;12.30;99.90
2012;DHT22;1009;51.436;6.972;2023-11-19T09:19:58;12.30;99.90
2012;DHT22;1009;51.436;6.972;2023-11-19T09:22:25;12.30;99.90
2012;DHT22;1009;51.436;6.972;2023-11-19T09:24:53;12.30;99.90
2012;DHT22;1009;51.436;6.972;2023-11-19T09:27:20;12.30;99.90
2012;DHT22;1009;51.436;6.972;2023-11-19T09:29:47;12.30;99.90
2012;DHT22;1009;51.436;6.972;2023-11-19T09:32:15;12.30;99.90
2012;DHT22;1009;51.436;6.972;2023-11-19T09:34:42;12.30;99.90
2012;DHT22;1009;51.436;6.972;2023-11-19T09:37:08;12.30;99.90
2012;DHT22;1009;51.436;6.972;2023-11-19T09:39:35;12.40;99.90
2012;DHT22;1009;51.436;6.972;2023-11-19T09:42:04;12.40;99.90
2012;DHT22;1009;51.436;6.972;2023-11-19T09:44:31;12.40;99.90
2012;DHT22;1009;51.436;6.972;2023-11-19T09:46:58;12.40;99.90
2012;DHT22;1009;51.436;6.972;2023-11-19T09:49:26;12.40;99.90
2012;DHT22;1009;51.436;6.972;2023-11-19T09:51:54;12.50;99.90
2012;DHT22;1009;51.436;6.972;2023-11-19T09:54:20;12.70;99.90
2012;DHT22;1009;51.436;6.972;2023-11-19T09:56:48;12.90;99.90
2012;DHT22;1009;51.436;6.972;2023-11-19T09:59:16;12.90;99.90
2012;DHT22;1009;51.436;6.972;2023-11-19T10:01:45;13.00;99.90
2012;DHT22;1009;51.436;6.972;2023-11-19T10:04:15;13.00;99.90
2012;DHT22;1009;51.436;6.972;2023-11-19T10:06:42;13.00;99.90
2012;DHT22;1009;51.436;6.972;2023-11-19T10:09:09;13.00;99.90
2012;DHT22;1009;51.436;6.972;2023-11-19T10:11:35;12.90;99.90
2012;DHT22;1009;51.436;6.972;2023-11-19T10:14:02;12.80;99.90
2012;DHT22;1009;51.436;6.972;2023-11-19T10:16:30;12.90;99.90
2012;DHT22;1009;51.436;6.972;2023-11-19T10:18:58;12.90;99.90
2012;DHT22;1009;51.436;6.972;2023-11-19T10:21:25;12.90;99.90
2012;DHT22;1009;51.436;6.972;2023-11-19T10:23:54;12.80;99.90
2012;DHT22;1009;51.436;6.972;2023-11-19T10:26:23;12.80;99.90
2012;DHT22;1009;51.436;6.972;2023-11-19T10:28:50;12.80;99.90
2012;DHT22;1009;51.436;6.972;2023-11-19T10:31:18;12.80;99.90
2012;DHT22;1009;51.436;6.972;2023-11-19T10:33:46;12.80;99.90
2012;DHT22;1009;51.436;6.972;2023-11-19T10:36:13;12.90;99.90
2012;DHT22;1009;51.436;6.972;2023-11-19T10:38:40;12.90;99.90
2012;DHT22;1009;51.436;6.972;2023-11-19T10:41:07;12.90;99.90
2012;DHT22;1009;51.436;6.972;2023-11-19T10:43:43;13.00;99.90
2012;DHT22;1009;51.436;6.972;2023-11-19T10:46:12;13.00;99.90
2012;DHT22;1009;51.436;6.972;2023-11-19T10:48:39;13.00;99.90
2012;DHT22;1009;51.436;6.972;2023-11-19T10:51:07;13.00;99.90
2012;DHT22;1009;51.436;6.972;2023-11-19T10:53:36;12.90;99.90
2012;DHT22;1009;51.436;6.972;2023-11-19T10:56:06;12.90;99.90
2012;DHT22;1009;51.436;6.972;2023-11-19T10:58:36;12.90;99.90
2012;DHT22;1009;51.436;6.972;2023-11-19T11:01:09;13.00;99.90
2012;DHT22;1009;51.436;6.972;2023-11-19T11:03:39;13.00;99.90
2012;DHT22;1009;51.436;6.972;2023-11-19T11:06:08;13.00;99.90
2012;DHT22;1009;51.436;6.972;2023-11-19T11:08:37;13.10;99.90
2012;DHT22;1009;51.436;6.972;2023-11-19T11:11:05;13.20;99.90
2012;DHT22;1009;51.436;6.972;2023-11-19T11:13:32;13.20;99.90
2012;DHT22;1009;51.436;6.972;2023-11-19T11:16:00;13.20;99.90
2012;DHT22;1009;51.436;6.972;2023-11-19T11:18:27;13.20;99.90
2012;DHT22;1009;51.436;6.972;2023-11-19T11:20:58;13.20;99.90
2012;DHT22;1009;51.436;6.972;2023-11-19T11:23:52;13.30;99.90
2012;DHT22;1009;51.436;6.972;2023-11-19T11:27:01;13.30;99.90
2012;DHT22;1009;51.436;6.972;2023-11-19T11:29:37;13.30;99.90
2012;DHT22;1009;51.436;6.972;2023-11-19T11:32:16;13.30;99.90
2012;DHT22;1009;51.436;6.972;2023-11-19T11:34:58;13.40;99.90
2012;DHT22;1009;51.436;6.972;2023-11-19T11:37:32;13.40;99.90
2012;DHT22;1009;51.436;6.972;2023-11-19T11:40:01;13.50;99.90
2012;DHT22;1009;51.436;6.972;2023-11-19T11:42:34;13.60;99.90
2012;DHT22;1009;51.436;6.972;2023-11-19T11:45:03;13.80;99.90
2012;DHT22;1009;51.436;6.972;2023-11-19T11:48:14;13.90;99.90
2012;DHT22;1009;51.436;6.972;2023-11-19T11:50:53;13.80;99.90
2012;DHT22;1009;51.436;6.972;2023-11-19T11:53:25;13.80;99.90
2012;DHT22;1009;51.436;6.972;2023-11-19T11:55:55;13.70;99.90
2012;DHT22;1009;51.436;6.972;2023-11-19T11:58:26;13.60;99.90
2012;DHT22;1009;51.436;6.972;2023-11-19T12:00:53;13.60;99.90
2012;DHT22;1009;51.436;6.972;2023-11-19T12:03:21;13.60;99.90
2012;DHT22;1009;51.436;6.972;2023-11-19T12:05:48;13.60;99.90
2012;DHT22;1009;51.436;6.972;2023-11-19T12:08:19;13.70;99.90
2012;DHT22;1009;51.436;6.972;2023-11-19T12:10:47;13.70;99.90
2012;DHT22;1009;51.436;6.972;2023-11-19T12:13:16;13.80;99.90
2012;DHT22;1009;51.436;6.972;2023-11-19T12:16:09;13.90;99.90
2012;DHT22;1009;51.436;6.972;2023-11-19T12:18:39;13.80;99.90
2012;DHT22;1009;51.436;6.972;2023-11-19T12:21:07;13.80;99.90
2012;DHT22;1009;51.436;6.972;2023-11-19T12:23:44;13.90;99.90
2012;DHT22;1009;51.436;6.972;2023-11-19T12:26:21;13.90;99.90
2012;DHT22;1009;51.436;6.972;2023-11-19T12:29:02;13.70;99.90
2012;DHT22;1009;51.436;6.972;2023-11-19T12:31:32;13.70;99.90
2012;DHT22;1009;51.436;6.972;2023-11-19T12:34:05;13.70;99.90
2012;DHT22;1009;51.436;6.972;2023-11-19T12:36:32;13.70;99.90
2012;DHT22;1009;51.436;6.972;2023-11-19T12:38:58;13.70;99.90
2012;DHT22;1009;51.436;6.972;2023-11-19T12:41:26;13.60;99.90
2012;DHT22;1009;51.436;6.972;2023-11-19T12:43:53;13.60;99.90
2012;DHT22;1009;51.436;6.972;2023-11-19T12:46:22;13.50;99.90
2012;DHT22;1009;51.436;6.972;2023-11-19T12:48:49;13.40;99.90
2012;DHT22;1009;51.436;6.972;2023-11-19T12:51:17;13.30;99.90
2012;DHT22;1009;51.436;6.972;2023-11-19T12:53:49;13.00;99.90
2012;DHT22;1009;51.436;6.972;2023-11-19T12:56:16;12.90;99.90
2012;DHT22;1009;51.436;6.972;2023-11-19T12:58:43;12.70;99.90
2012;DHT22;1009;51.436;6.972;2023-11-19T13:01:15;12.50;99.90
2012;DHT22;1009;51.436;6.972;2023-11-19T13:03:44;12.40;99.90
2012;DHT22;1009;51.436;6.972;2023-11-19T13:06:13;12.40;99.90
2012;DHT22;1009;51.436;6.972;2023-11-19T13:08:42;12.40;99.90
2012;DHT22;1009;51.436;6.972;2023-11-19T13:11:10;12.30;99.90
2012;DHT22;1009;51.436;6.972;2023-11-19T13:13:56;12.30;99.90
2012;DHT22;1009;51.436;6.972;2023-11-19T13:16:23;12.40;99.90
2012;DHT22;1009;51.436;6.972;2023-11-19T13:18:52;12.50;99.90
2012;DHT22;1009;51.436;6.972;2023-11-19T13:21:19;12.50;99.90
2012;DHT22;1009;51.436;6.972;2023-11-19T13:23:45;12.70;99.90
2012;DHT22;1009;51.436;6.972;2023-11-19T13:26:12;12.80;99.90
2012;DHT22;1009;51.436;6.972;2023-11-19T13:28:39;13.10;99.90
2012;DHT22;1009;51.436;6.972;2023-11-19T13:31:06;13.20;99.90
2012;DHT22;1009;51.436;6.972;2023-11-19T13:33:35;13.20;99.90
2012;DHT22;1009;51.436;6.972;2023-11-19T13:36:04;13.50;99.90
2012;DHT22;1009;51.436;6.972;2023-11-19T13:38:33;13.40;99.90
2012;DHT22;1009;51.436;6.972;2023-11-19T13:40:59;13.40;99.90
2012;DHT22;1009;51.436;6.972;2023-11-19T13:43:26;13.20;99.90
2012;DHT22;1009;51.436;6.972;2023-11-19T13:45:54;12.90;99.90
2012;DHT22;1009;51.436;6.972;2023-11-19T13:48:21;13.00;99.90
2012;DHT22;1009;51.436;6.972;2023-11-19T13:50:48;13.00;99.90
2012;DHT22;1009;51.436;6.972;2023-11-19T13:53:16;12.80;99.90
2012;DHT22;1009;51.436;6.972;2023-11-19T13:55:43;12.70;99.90
2012;DHT22;1009;51.436;6.972;2023-11-19T13:58:10;12.70;99.90
2012;DHT22;1009;51.436;6.972;2023-11-19T14:00:37;12.80;99.90
2012;DHT22;1009;51.436;6.972;2023-11-19T14:03:04;13.00;99.90
2012;DHT22;1009;51.436;6.972;2023-11-19T14:05:30;13.00;99.90
2012;DHT22;1009;51.436;6.972;2023-11-19T14:07:57;12.90;99.90
2012;DHT22;1009;51.436;6.972;2023-11-19T14:10:27;12.80;99.90
2012;DHT22;1009;51.436;6.972;2023-11-19T14:12:55;12.70;99.90
2012;DHT22;1009;51.436;6.972;2023-11-19T14:15:22;12.70;99.90
2012;DHT22;1009;51.436;6.972;2023-11-19T14:17:48;12.60;99.90
2012;DHT22;1009;51.436;6.972;2023-11-19T14:20:15;12.60;99.90
2012;DHT22;1009;51.436;6.972;2023-11-19T14:22:43;12.60;99.90
2012;DHT22;1009;51.436;6.972;2023-11-19T14:25:13;12.60;99.90
2012;DHT22;1009;51.436;6.972;2023-11-19T14:27:43;12.40;99.90
2012;DHT22;1009;51.436;6.972;2023-11-19T14:30:11;12.20;99.90
2012;DHT22;1009;51.436;6.972;2023-11-19T14:32:40;12.10;99.90
2012;DHT22;1009;51.436;6.972;2023-11-19T14:35:08;12.00;99.90
2012;DHT22;1009;51.436;6.972;2023-11-19T14:37:35;12.00;99.90
2012;DHT22;1009;51.436;6.972;2023-11-19T14:40:02;12.10;99.90
2012;DHT22;1009;51.436;6.972;2023-11-19T14:42:30;12.00;99.90
2012;DHT22;1009;51.436;6.972;2023-11-19T14:44:58;11.90;99.90
2012;DHT22;1009;51.436;6.972;2023-11-19T14:47:25;11.90;99.90
2012;DHT22;1009;51.436;6.972;2023-11-19T14:49:52;11.90;99.90
2012;DHT22;1009;51.436;6.972;2023-11-19T14:52:18;11.90;99.90
2012;DHT22;1009;51.436;6.972;2023-11-19T14:54:45;12.00;99.90
2012;DHT22;1009;51.436;6.972;2023-11-19T14:57:12;11.90;99.90
2012;DHT22;1009;51.436;6.972;2023-11-19T14:59:40;11.90;99.90
2012;DHT22;1009;51.436;6.972;2023-11-19T15:02:08;11.90;99.90
2012;DHT22;1009;51.436;6.972;2023-11-19T15:04:36;11.80;99.90
2012;DHT22;1009;51.436;6.972;2023-11-19T15:07:02;11.90;99.90
2012;DHT22;1009;51.436;6.972;2023-11-19T15:09:30;11.90;99.90
2012;DHT22;1009;51.436;6.972;2023-11-19T15:11:58;11.80;99.90
2012;DHT22;1009;51.436;6.972;2023-11-19T15:14:25;11.80;99.90
2012;DHT22;1009;51.436;6.972;2023-11-19T15:16:51;11.80;99.90
2012;DHT22;1009;51.436;6.972;2023-11-19T15:19:19;11.70;99.90
2012;DHT22;1009;51.436;6.972;2023-11-19T15:21:46;11.70;99.90
2012;DHT22;1009;51.436;6.972;2023-11-19T15:24:13;11.70;99.90
2012;DHT22;1009;51.436;6.972;2023-11-19T15:26:40;11.60;99.90
2012;DHT22;1009;51.436;6.972;2023-11-19T15:29:07;11.60;99.90
2012;DHT22;1009;51.436;6.972;2023-11-19T15:31:33;11.60;99.90
2012;DHT22;1009;51.436;6.972;2023-11-19T15:34:00;11.50;99.90
2012;DHT22;1009;51.436;6.972;2023-11-19T15:36:29;11.50;99.90
2012;DHT22;1009;51.436;6.972;2023-11-19T15:38:57;11.40;99.90
2012;DHT22;1009;51.436;6.972;2023-11-19T15:41:24;11.40;99.90
2012;DHT22;1009;51.436;6.972;2023-11-19T15:43:50;11.30;99.90
2012;DHT22;1009;51.436;6.972;2023-11-19T15:46:17;11.30;99.90
2012;DHT22;1009;51.436;6.972;2023-11-19T15:48:44;11.20;99.90
2012;DHT22;1009;51.436;6.972;2023-11-19T15:51:11;11.20;99.90
2012;DHT22;1009;51.436;6.972;2023-11-19T15:53:39;11.20;99.90
2012;DHT22;1009;51.436;6.972;2023-11-19T15:56:06;11.20;99.90
2012;DHT22;1009;51.436;6.972;2023-11-19T15:58:33;11.20;99.90
2012;DHT22;1009;51.436;6.972;2023-11-19T16:01:00;11.20;99.90
2012;DHT22;1009;51.436;6.972;2023-11-19T16:03:27;11.20;99.90
2012;DHT22;1009;51.436;6.972;2023-11-19T16:05:55;11.20;99.90
2012;DHT22;1009;51.436;6.972;2023-11-19T16:08:22;11.20;99.90
2012;DHT22;1009;51.436;6.972;2023-11-19T16:10:50;11.30;99.90
2012;DHT22;1009;51.436;6.972;2023-11-19T16:13:17;11.30;99.90
2012;DHT22;1009;51.436;6.972;2023-11-19T16:15:44;11.20;99.90